Time;durP1;ratioP1;P1;durP2;ratioP2;P2;SDS_P1;SDS_P2;PMS_P1;PMS_P2;Temp;Humidity;BMP_temperature;BMP_pressure;BME280_temperature;BME280_humidity;BME280_pressure;Samples;Min_cycle;Max_cycle;Signal;HPM_P1;HPM_P2
2021/05/10 00:04:41;;;;;;;3.87;1.50;;;;;;;;;;10490725;28;20243;-73
2021/05/10 00:09:44;;;;;;;3.50;1.40;;;;;;;;;;10484008;28;20521;-73
2021/05/10 00:14:48;;;;;;;3.00;1.20;;;;;;;;;;10488623;28;20220;-73
2021/05/10 00:19:50;;;;;;;2.73;1.10;;;;;;;;;;10481554;28;20649;-73
2021/05/10 00:24:52;;;;;;;2.90;1.33;;;;;;;;;;10475580;28;20635;-73
2021/05/10 00:29:53;;;;;;;2.70;1.30;;;;;;;;;;10492217;28;20216;-70
2021/05/10 00:34:55;;;;;;;2.97;1.30;;;;;;;;;;10489584;28;20208;-73
2021/05/10 00:39:58;;;;;;;2.90;1.30;;;;;;;;;;10500369;28;20239;-73
2021/05/10 00:44:59;;;;;;;4.63;1.30;;;;;;;;;;10479163;28;20222;-73
2021/05/10 00:50:01;;;;;;;2.47;1.30;;;;;;;;;;10519246;28;20188;-73
2021/05/10 00:55:04;;;;;;;1.97;1.23;;;;;;;;;;10483075;28;20216;-73
2021/05/10 01:00:06;;;;;;;4.80;1.43;;;;;;;;;;10482243;28;20220;-73
2021/05/10 01:05:08;;;;;;;2.53;1.30;;;;;;;;;;10478237;28;20302;-72
2021/05/10 01:10:12;;;;;;;3.87;1.47;;;;;;;;;;10487553;28;20188;-73
2021/05/10 01:15:15;;;;;;;2.33;1.20;;;;;;;;;;10483954;28;20228;-73
2021/05/10 01:20:16;;;;;;;1.03;0.90;;;;;;;;;;10478378;28;20295;-72
2021/05/10 01:25:20;;;;;;;3.30;1.20;;;;;;;;;;10484332;28;20284;-73
2021/05/10 01:30:23;;;;;;;2.30;1.27;;;;;;;;;;10484914;28;20188;-73
2021/05/10 01:35:25;;;;;;;3.23;1.30;;;;;;;;;;10490646;28;20220;-73
2021/05/10 01:40:28;;;;;;;3.20;1.20;;;;;;;;;;10480196;28;20299;-73
2021/05/10 01:45:30;;;;;;;3.43;1.37;;;;;;;;;;10492993;28;20545;-73
2021/05/10 01:50:32;;;;;;;3.37;1.20;;;;;;;;;;10489956;28;20208;-73
2021/05/10 01:55:35;;;;;;;4.17;1.30;;;;;;;;;;10486111;28;20220;-72
2021/05/10 02:00:37;;;;;;;2.20;1.30;;;;;;;;;;10482175;28;20580;-72
2021/05/10 02:05:39;;;;;;;2.80;1.30;;;;;;;;;;10487347;28;20706;-73
2021/05/10 02:10:42;;;;;;;2.23;1.30;;;;;;;;;;10486710;28;20637;-73
2021/05/10 02:15:45;;;;;;;3.03;1.30;;;;;;;;;;10477291;28;20270;-73
2021/05/10 02:20:47;;;;;;;2.63;1.47;;;;;;;;;;10483323;28;20695;-73
2021/05/10 02:25:50;;;;;;;2.13;1.20;;;;;;;;;;10488256;28;20209;-72
2021/05/10 02:30:52;;;;;;;1.80;1.20;;;;;;;;;;10483212;28;20188;-73
2021/05/10 02:35:55;;;;;;;1.83;1.10;;;;;;;;;;10487411;28;20219;-75
2021/05/10 02:40:57;;;;;;;2.30;1.23;;;;;;;;;;10483511;28;20276;-72
2021/05/10 02:45:59;;;;;;;2.77;1.27;;;;;;;;;;10502275;28;20643;-72
2021/05/10 02:51:00;;;;;;;2.37;1.20;;;;;;;;;;10496504;28;20192;-72
2021/05/10 02:56:03;;;;;;;3.43;1.50;;;;;;;;;;10484219;28;20216;-73
2021/05/10 03:01:05;;;;;;;3.27;1.80;;;;;;;;;;10497968;28;20618;-72
2021/05/10 03:06:06;;;;;;;2.73;1.20;;;;;;;;;;10492300;28;20222;-73
2021/05/10 03:11:09;;;;;;;2.80;1.20;;;;;;;;;;10489562;28;20747;-73
2021/05/10 03:16:10;;;;;;;2.23;1.33;;;;;;;;;;10490765;28;20323;-72
2021/05/10 03:21:12;;;;;;;2.70;1.20;;;;;;;;;;10496674;28;20625;-72
2021/05/10 03:26:14;;;;;;;3.20;1.30;;;;;;;;;;10479399;28;20239;-73
2021/05/10 03:31:16;;;;;;;2.27;1.30;;;;;;;;;;10477593;28;20537;-73
2021/05/10 03:36:17;;;;;;;2.97;1.50;;;;;;;;;;10491470;28;20269;-72
2021/05/10 03:41:21;;;;;;;3.00;1.20;;;;;;;;;;10490197;28;20200;-72
2021/05/10 03:46:23;;;;;;;3.73;1.40;;;;;;;;;;10488425;28;20966;-72
2021/05/10 03:51:25;;;;;;;1.80;1.20;;;;;;;;;;10488482;28;20212;-73
2021/05/10 03:56:27;;;;;;;1.90;1.10;;;;;;;;;;10489395;28;20220;-73
2021/05/10 04:01:28;;;;;;;3.40;1.20;;;;;;;;;;10479461;28;20696;-72
2021/05/10 04:07:04;;;;;;;3.83;1.23;;;;;;;;;;10494631;28;20227;-71
2021/05/10 04:17:27;;;;;;;3.00;1.43;;;;;;;;;;10479709;28;20646;-70
2021/05/10 04:22:31;;;;;;;2.23;1.17;;;;;;;;;;10459259;28;20240;-73
2021/05/10 04:27:34;;;;;;;2.30;1.20;;;;;;;;;;10463652;28;20275;-72
2021/05/10 04:32:36;;;;;;;2.57;1.50;;;;;;;;;;10471020;28;20189;-72
2021/05/10 04:37:39;;;;;;;3.70;1.30;;;;;;;;;;10458475;28;20212;-72
2021/05/10 04:42:41;;;;;;;3.80;1.47;;;;;;;;;;10458755;28;21391;-68
2021/05/10 04:47:46;;;;;;;2.67;1.30;;;;;;;;;;10469524;28;20188;-72
2021/05/10 04:52:47;;;;;;;5.30;1.67;;;;;;;;;;10481033;28;20683;-72
2021/05/10 04:57:49;;;;;;;2.57;1.50;;;;;;;;;;10482362;28;20243;-72
2021/05/10 05:02:51;;;;;;;5.00;1.40;;;;;;;;;;10482528;28;20281;-72
2021/05/10 05:07:52;;;;;;;4.80;1.53;;;;;;;;;;10477337;28;20184;-73
2021/05/10 05:12:55;;;;;;;5.63;1.80;;;;;;;;;;10483348;28;20219;-73
2021/05/10 05:17:56;;;;;;;3.43;1.40;;;;;;;;;;10483456;28;20216;-73
2021/05/10 05:22:58;;;;;;;3.10;1.50;;;;;;;;;;10481518;28;20244;-72
2021/05/10 05:28:00;;;;;;;2.37;1.50;;;;;;;;;;10487962;28;20220;-72
2021/05/10 05:33:02;;;;;;;3.10;1.37;;;;;;;;;;10482247;28;20307;-72
2021/05/10 05:38:04;;;;;;;3.17;1.60;;;;;;;;;;10512023;28;20203;-73
2021/05/10 05:43:08;;;;;;;4.27;1.60;;;;;;;;;;10486494;28;20231;-71
2021/05/10 05:48:10;;;;;;;3.40;1.73;;;;;;;;;;10483737;28;20855;-71
2021/05/10 05:53:12;;;;;;;3.90;1.53;;;;;;;;;;10478169;28;20320;-71
2021/05/10 05:58:15;;;;;;;3.07;1.30;;;;;;;;;;10488856;28;20247;-71
2021/05/10 06:03:16;;;;;;;5.20;1.40;;;;;;;;;;10487002;28;20216;-71
2021/05/10 06:08:18;;;;;;;4.07;1.60;;;;;;;;;;10482742;28;20226;-72
2021/05/10 06:13:20;;;;;;;3.87;1.63;;;;;;;;;;10477206;28;20216;-72
2021/05/10 06:18:22;;;;;;;5.00;1.63;;;;;;;;;;10490028;28;20230;-71
2021/05/10 06:23:23;;;;;;;4.00;1.87;;;;;;;;;;10494329;28;20215;-69
2021/05/10 06:28:26;;;;;;;3.57;1.40;;;;;;;;;;10490789;28;20201;-70
2021/05/10 06:33:27;;;;;;;2.70;1.40;;;;;;;;;;10489287;28;20231;-70
2021/05/10 06:38:29;;;;;;;5.73;1.60;;;;;;;;;;10485731;28;20211;-71
2021/05/10 06:43:32;;;;;;;3.20;1.30;;;;;;;;;;10482987;28;20216;-70
2021/05/10 06:48:34;;;;;;;3.53;1.50;;;;;;;;;;10489651;28;20189;-71
2021/05/10 06:53:36;;;;;;;4.30;1.70;;;;;;;;;;10500629;28;20715;-71
2021/05/10 06:58:38;;;;;;;2.63;1.33;;;;;;;;;;10490437;28;20200;-71
2021/05/10 07:03:40;;;;;;;3.92;1.60;;;;;;;;;;10490200;28;20720;-72
2021/05/10 07:08:41;;;;;;;2.65;1.50;;;;;;;;;;10502297;28;20195;-72
2021/05/10 07:13:44;;;;;;;4.35;1.70;;;;;;;;;;10487427;28;20219;-72
2021/05/10 07:18:45;;;;;;;4.25;1.60;;;;;;;;;;10491701;28;20296;-72
2021/05/10 07:23:47;;;;;;;4.13;1.40;;;;;;;;;;10484287;28;20216;-72
2021/05/10 07:28:50;;;;;;;3.90;1.70;;;;;;;;;;10493043;28;20275;-72
2021/05/10 07:33:51;;;;;;;5.35;1.70;;;;;;;;;;10496298;28;20240;-72
2021/05/10 07:38:53;;;;;;;4.15;1.65;;;;;;;;;;10494521;28;20212;-71
2021/05/10 07:43:55;;;;;;;2.85;1.40;;;;;;;;;;10495092;28;20623;-71
2021/05/10 07:48:57;;;;;;;5.10;1.83;;;;;;;;;;10491140;28;20200;-71
2021/05/10 07:53:58;;;;;;;4.18;1.67;;;;;;;;;;10490668;28;20683;-71
2021/05/10 07:59:02;;;;;;;4.18;1.50;;;;;;;;;;10484664;28;20240;-72
2021/05/10 08:04:03;;;;;;;3.17;1.60;;;;;;;;;;10499532;28;20684;-72
2021/05/10 08:09:05;;;;;;;4.50;1.77;;;;;;;;;;10488357;28;20274;-72
2021/05/10 08:14:09;;;;;;;5.43;2.17;;;;;;;;;;10499031;28;20325;-73
2021/05/10 08:19:12;;;;;;;3.20;1.80;;;;;;;;;;10483070;28;20243;-72
2021/05/10 08:24:13;;;;;;;5.35;1.63;;;;;;;;;;10483271;28;20913;-72
2021/05/10 08:29:16;;;;;;;4.32;1.60;;;;;;;;;;10488091;28;20896;-73
2021/05/10 08:34:18;;;;;;;2.13;1.50;;;;;;;;;;10485066;28;20296;-72
2021/05/10 08:39:20;;;;;;;3.05;1.35;;;;;;;;;;10482015;28;20288;-72
2021/05/10 08:44:22;;;;;;;4.45;1.95;;;;;;;;;;10486668;28;20294;-73
2021/05/10 08:49:24;;;;;;;3.70;1.98;;;;;;;;;;10479210;28;20220;-72
2021/05/10 08:54:27;;;;;;;4.97;1.92;;;;;;;;;;10512871;28;20220;-72
2021/05/10 08:59:29;;;;;;;4.47;2.03;;;;;;;;;;10483025;28;20247;-72
2021/05/10 09:04:32;;;;;;;4.10;1.80;;;;;;;;;;10481125;28;20293;-72
2021/05/10 09:09:49;;;;;;;2.55;1.70;;;;;;;;;;10489679;28;20649;-72
2021/05/10 09:14:51;;;;;;;4.03;1.95;;;;;;;;;;10486766;28;20219;-71
2021/05/10 09:19:56;;;;;;;4.45;2.03;;;;;;;;;;10488150;28;20220;-73
2021/05/10 09:24:58;;;;;;;2.95;1.65;;;;;;;;;;10488328;28;20212;-73
2021/05/10 09:30:14;;;;;;;4.82;1.70;;;;;;;;;;10481953;28;20199;-72
2021/05/10 09:35:17;;;;;;;3.83;1.80;;;;;;;;;;10488440;28;20258;-71
2021/05/10 09:40:19;;;;;;;4.47;1.73;;;;;;;;;;10476386;28;20212;-72
2021/05/10 09:45:43;;;;;;;7.80;2.10;;;;;;;;;;10481258;28;20224;-71
2021/05/10 09:50:45;;;;;;;3.67;1.95;;;;;;;;;;10473341;28;20203;-71
2021/05/10 09:55:49;;;;;;;3.88;2.10;;;;;;;;;;10479812;28;20238;-72
2021/05/10 10:00:56;;;;;;;2.88;1.83;;;;;;;;;;10484862;28;20278;-72
2021/05/10 10:05:58;;;;;;;3.50;1.80;;;;;;;;;;10488162;28;20301;-72
2021/05/10 10:11:00;;;;;;;4.82;1.85;;;;;;;;;;10476615;28;20284;-73
2021/05/10 10:16:03;;;;;;;5.32;2.00;;;;;;;;;;10478265;28;20286;-71
2021/05/10 10:21:06;;;;;;;4.57;1.88;;;;;;;;;;10491260;28;20261;-72
2021/05/10 10:26:10;;;;;;;3.35;1.95;;;;;;;;;;10485778;28;20761;-73
2021/05/10 10:31:14;;;;;;;4.00;1.98;;;;;;;;;;10486178;28;20187;-73
2021/05/10 10:36:21;;;;;;;4.65;2.80;;;;;;;;;;10468995;28;20225;-72
2021/05/10 10:41:24;;;;;;;3.72;1.90;;;;;;;;;;10477529;28;20313;-73
2021/05/10 10:46:28;;;;;;;5.03;2.08;;;;;;;;;;10486674;28;20219;-72
2021/05/10 10:51:50;;;;;;;3.75;1.92;;;;;;;;;;10478941;28;20287;-73
2021/05/10 10:56:53;;;;;;;3.95;1.92;;;;;;;;;;10470169;28;20239;-71
2021/05/10 11:01:57;;;;;;;4.70;2.22;;;;;;;;;;10477550;28;20229;-70
2021/05/10 11:06:59;;;;;;;5.35;2.00;;;;;;;;;;10491471;28;20277;-72
2021/05/10 11:12:00;;;;;;;3.85;1.98;;;;;;;;;;10484202;28;20192;-71
2021/05/10 11:17:03;;;;;;;3.63;1.85;;;;;;;;;;10488228;28;20220;-73
2021/05/10 11:22:19;;;;;;;2.30;1.60;;;;;;;;;;10472771;28;20291;-71
2021/05/10 11:27:24;;;;;;;4.20;2.65;;;;;;;;;;10483617;28;20238;-72
2021/05/10 11:32:33;;;;;;;2.90;1.63;;;;;;;;;;10495469;28;20681;-73
2021/05/10 11:37:36;;;;;;;2.60;1.70;;;;;;;;;;10498184;28;20786;-71
2021/05/10 11:42:38;;;;;;;4.00;1.98;;;;;;;;;;10491798;28;20188;-71
2021/05/10 11:47:46;;;;;;;6.22;1.70;;;;;;;;;;10476113;28;20267;-72
2021/05/10 11:52:48;;;;;;;2.58;1.75;;;;;;;;;;10490090;28;20232;-73
2021/05/10 11:57:56;;;;;;;4.15;1.83;;;;;;;;;;10498293;28;20291;-72
2021/05/10 12:02:58;;;;;;;5.57;2.20;;;;;;;;;;10496779;28;20219;-71
2021/05/10 12:08:00;;;;;;;3.90;1.80;;;;;;;;;;10483750;28;20192;-72
2021/05/10 12:13:01;;;;;;;4.97;1.80;;;;;;;;;;10488487;28;20213;-71
2021/05/10 12:18:06;;;;;;;7.63;2.13;;;;;;;;;;10489895;28;20220;-72
2021/05/10 12:23:09;;;;;;;6.78;2.08;;;;;;;;;;10484089;28;20296;-73
2021/05/10 12:28:11;;;;;;;2.80;1.60;;;;;;;;;;10487777;28;20283;-72
2021/05/10 12:33:15;;;;;;;4.43;1.63;;;;;;;;;;10480080;28;20227;-72
2021/05/10 12:38:24;;;;;;;2.95;1.50;;;;;;;;;;10481878;28;20849;-72
2021/05/10 12:43:26;;;;;;;3.35;1.77;;;;;;;;;;10487998;28;20208;-70
2021/05/10 12:48:29;;;;;;;4.70;1.88;;;;;;;;;;10486545;28;20279;-72
2021/05/10 12:53:33;;;;;;;5.03;1.73;;;;;;;;;;10491634;28;20220;-72
2021/05/10 12:58:36;;;;;;;3.92;1.60;;;;;;;;;;10481143;28;20317;-70
2021/05/10 13:03:38;;;;;;;3.28;1.70;;;;;;;;;;10481666;28;20267;-72
2021/05/10 13:08:48;;;;;;;4.93;1.50;;;;;;;;;;10479478;28;20245;-72
2021/05/10 13:13:55;;;;;;;3.97;1.45;;;;;;;;;;10483042;28;20248;-72
2021/05/10 13:19:16;;;;;;;3.75;1.50;;;;;;;;;;10486280;28;20338;-72
2021/05/10 13:35:35;;;;;;;4.60;1.50;;;;;;;;;;10481929;28;20222;-72
2021/05/10 13:40:37;;;;;;;3.38;1.55;;;;;;;;;;10478660;28;20219;-72
2021/05/10 13:45:39;;;;;;;9.30;1.73;;;;;;;;;;10486590;28;20211;-70
2021/05/10 13:50:41;;;;;;;4.68;1.60;;;;;;;;;;10478099;28;20196;-71
2021/05/10 13:55:43;;;;;;;4.85;1.55;;;;;;;;;;10485218;28;20203;-71
2021/05/10 14:00:44;;;;;;;6.80;1.73;;;;;;;;;;10483745;28;20510;-72
2021/05/10 14:05:47;;;;;;;4.63;1.50;;;;;;;;;;10483964;28;20307;-72
2021/05/10 14:10:50;;;;;;;6.45;1.60;;;;;;;;;;10469017;28;20189;-72
2021/05/10 14:15:51;;;;;;;4.45;1.70;;;;;;;;;;10472506;28;20269;-71
2021/05/10 14:26:13;;;;;;;9.65;1.63;;;;;;;;;;10486532;28;20216;-71
2021/05/10 14:31:15;;;;;;;3.80;1.60;;;;;;;;;;10487351;28;20274;-70
2021/05/10 14:36:18;;;;;;;5.57;1.70;;;;;;;;;;10485126;28;20215;-70
2021/05/10 14:41:19;;;;;;;8.05;1.90;;;;;;;;;;10478271;28;20240;-71
2021/05/10 14:46:21;;;;;;;8.85;2.55;;;;;;;;;;10484278;28;20224;-71
2021/05/10 14:51:23;;;;;;;5.90;1.90;;;;;;;;;;10484048;28;20234;-72
2021/05/10 14:56:25;;;;;;;4.30;1.63;;;;;;;;;;10485745;28;20220;-72
2021/05/10 15:01:26;;;;;;;5.22;1.35;;;;;;;;;;10485789;28;20285;-70
2021/05/10 15:06:29;;;;;;;5.38;1.77;;;;;;;;;;10490071;28;20220;-70
2021/05/10 15:11:31;;;;;;;6.97;1.90;;;;;;;;;;10480264;28;20665;-71
2021/05/10 15:16:32;;;;;;;7.72;1.67;;;;;;;;;;10505691;28;20272;-69
2021/05/10 15:21:35;;;;;;;3.08;1.45;;;;;;;;;;10494884;28;20279;-71
2021/05/10 15:26:37;;;;;;;4.75;1.60;;;;;;;;;;10477866;28;20869;-72
2021/05/10 15:31:38;;;;;;;5.80;1.50;;;;;;;;;;10479228;28;20222;-70
2021/05/10 15:36:41;;;;;;;5.43;1.85;;;;;;;;;;10480384;28;20227;-69
2021/05/10 15:41:42;;;;;;;8.18;1.92;;;;;;;;;;10487219;28;20228;-70
2021/05/10 15:46:45;;;;;;;5.75;1.83;;;;;;;;;;10486347;28;20213;-71
2021/05/10 15:51:48;;;;;;;3.67;1.38;;;;;;;;;;10473242;28;20196;-70
2021/05/10 15:56:51;;;;;;;5.38;1.80;;;;;;;;;;10488223;28;20568;-71
2021/05/10 16:01:53;;;;;;;8.32;1.88;;;;;;;;;;10487802;28;20316;-72
2021/05/10 16:06:56;;;;;;;6.22;1.70;;;;;;;;;;10496746;28;20680;-70
2021/05/10 16:11:58;;;;;;;3.42;1.00;;;;;;;;;;10492504;28;20638;-71
2021/05/10 16:16:59;;;;;;;8.93;3.72;;;;;;;;;;10485939;28;20623;-70
2021/05/10 16:22:03;;;;;;;10.85;5.60;;;;;;;;;;10482843;28;20244;-70
2021/05/10 16:27:05;;;;;;;5.35;1.90;;;;;;;;;;10487201;28;20265;-71
2021/05/10 16:32:07;;;;;;;7.72;2.20;;;;;;;;;;10482134;28;20282;-70
2021/05/10 16:37:10;;;;;;;5.07;1.85;;;;;;;;;;10481104;28;20251;-72
2021/05/10 16:42:14;;;;;;;5.10;1.90;;;;;;;;;;10484347;28;20281;-71
2021/05/10 16:47:15;;;;;;;9.15;1.88;;;;;;;;;;10485014;28;20898;-71
2021/05/10 16:52:18;;;;;;;5.75;2.08;;;;;;;;;;10480604;28;20192;-70
2021/05/10 16:57:19;;;;;;;5.55;1.83;;;;;;;;;;10455459;28;20215;-70
2021/05/10 17:02:21;;;;;;;7.05;2.13;;;;;;;;;;10472785;28;20204;-72
2021/05/10 17:07:24;;;;;;;10.15;3.50;;;;;;;;;;10479532;28;20227;-72
2021/05/10 17:12:26;;;;;;;7.30;2.30;;;;;;;;;;10485742;28;20585;-72
2021/05/10 17:17:27;;;;;;;5.68;2.58;;;;;;;;;;10479630;28;20205;-72
2021/05/10 17:22:30;;;;;;;6.55;2.85;;;;;;;;;;10486108;28;20312;-70
2021/05/10 17:27:32;;;;;;;7.80;2.75;;;;;;;;;;10488497;28;20195;-71
2021/05/10 17:32:34;;;;;;;6.43;2.95;;;;;;;;;;10491769;28;20551;-72
2021/05/10 17:37:36;;;;;;;9.32;3.15;;;;;;;;;;10480545;28;20223;-71
2021/05/10 17:42:38;;;;;;;6.32;2.95;;;;;;;;;;10475025;28;20212;-71
2021/05/10 17:47:40;;;;;;;7.05;3.38;;;;;;;;;;10480664;28;20699;-71
2021/05/10 17:52:43;;;;;;;7.18;3.17;;;;;;;;;;10479339;28;20640;-71
2021/05/10 17:57:45;;;;;;;7.43;2.90;;;;;;;;;;10468833;28;20195;-71
2021/05/10 18:08:23;;;;;;;8.45;3.08;;;;;;;;;;10478982;28;20298;-70
2021/05/10 18:13:30;;;;;;;6.13;2.95;;;;;;;;;;10489891;28;20227;-72
2021/05/10 18:18:37;;;;;;;5.32;2.63;;;;;;;;;;10487656;28;20242;-72
2021/05/10 18:23:39;;;;;;;9.07;3.00;;;;;;;;;;10473307;28;20216;-72
2021/05/10 18:28:41;;;;;;;5.60;2.83;;;;;;;;;;10497862;28;20197;-71
2021/05/10 18:33:43;;;;;;;7.07;3.13;;;;;;;;;;10488625;28;20212;-72
2021/05/10 18:38:57;;;;;;;7.10;2.97;;;;;;;;;;10491038;28;20236;-72
2021/05/10 18:44:00;;;;;;;6.93;2.97;;;;;;;;;;10485653;28;20566;-72
2021/05/10 18:49:04;;;;;;;7.90;3.30;;;;;;;;;;10491407;28;20212;-70
2021/05/10 18:54:07;;;;;;;6.67;3.20;;;;;;;;;;10492705;28;20228;-72
2021/05/10 18:59:09;;;;;;;5.47;2.60;;;;;;;;;;10490128;28;20568;-73
2021/05/10 19:04:10;;;;;;;8.93;2.93;;;;;;;;;;10497423;28;20292;-71
2021/05/10 19:09:13;;;;;;;9.33;3.57;;;;;;;;;;10493281;28;20314;-72
2021/05/10 19:14:15;;;;;;;6.30;3.10;;;;;;;;;;10485960;28;20224;-71
2021/05/10 19:19:17;;;;;;;7.00;3.43;;;;;;;;;;10486480;28;20235;-72
2021/05/10 19:24:19;;;;;;;8.50;3.27;;;;;;;;;;10489012;28;20232;-72
2021/05/10 19:29:21;;;;;;;8.30;3.00;;;;;;;;;;10495364;28;20192;-72
2021/05/10 19:34:22;;;;;;;5.83;2.90;;;;;;;;;;10486092;28;20262;-71
2021/05/10 19:39:25;;;;;;;8.40;3.30;;;;;;;;;;10483249;28;20208;-72
2021/05/10 19:44:28;;;;;;;6.53;3.37;;;;;;;;;;10481895;28;20316;-71
2021/05/10 19:49:34;;;;;;;7.73;3.03;;;;;;;;;;10476596;28;20261;-71
2021/05/10 20:00:14;;;;;;;7.20;3.00;;;;;;;;;;10481606;28;20692;-71
2021/05/10 20:05:16;;;;;;;7.97;3.20;;;;;;;;;;10461985;28;20339;-73
2021/05/10 20:10:18;;;;;;;10.13;2.93;;;;;;;;;;10461972;28;20189;-72
2021/05/10 20:15:20;;;;;;;9.27;3.30;;;;;;;;;;10461439;28;20330;-74
2021/05/10 20:20:21;;;;;;;6.27;2.83;;;;;;;;;;10476280;28;20682;-72
2021/05/10 20:25:24;;;;;;;6.20;2.90;;;;;;;;;;10485241;28;20694;-73
2021/05/10 20:30:25;;;;;;;7.43;2.90;;;;;;;;;;10486275;28;20280;-73
2021/05/10 20:35:27;;;;;;;7.20;2.50;;;;;;;;;;10476070;28;20561;-73
2021/05/10 20:40:30;;;;;;;5.50;2.70;;;;;;;;;;10487943;28;20200;-73
2021/05/10 20:45:35;;;;;;;6.20;2.63;;;;;;;;;;10482545;28;20704;-73
2021/05/10 20:50:37;;;;;;;5.67;2.43;;;;;;;;;;10493964;28;20195;-73
2021/05/10 20:55:39;;;;;;;6.23;2.50;;;;;;;;;;10492039;28;20228;-73
2021/05/10 21:00:41;;;;;;;6.97;2.80;;;;;;;;;;10495626;28;20207;-73
2021/05/10 21:05:42;;;;;;;7.77;3.70;;;;;;;;;;10490621;28;20580;-72
2021/05/10 21:10:45;;;;;;;5.33;2.57;;;;;;;;;;10494508;28;20213;-72
2021/05/10 21:15:46;;;;;;;5.57;2.50;;;;;;;;;;10476324;28;20224;-71
2021/05/10 21:20:48;;;;;;;4.67;2.73;;;;;;;;;;10466495;28;20258;-73
2021/05/10 21:25:50;;;;;;;6.07;2.77;;;;;;;;;;10471009;28;20212;-72
2021/05/10 21:30:52;;;;;;;5.43;3.10;;;;;;;;;;10475998;28;20541;-72
2021/05/10 21:35:54;;;;;;;8.50;3.00;;;;;;;;;;10477025;28;20277;-73
2021/05/10 21:40:57;;;;;;;6.93;3.53;;;;;;;;;;10486790;28;20219;-70
2021/05/10 21:45:59;;;;;;;6.63;2.87;;;;;;;;;;10470395;28;20251;-73
2021/05/10 21:51:01;;;;;;;6.63;3.00;;;;;;;;;;10483210;28;20184;-73
2021/05/10 21:56:05;;;;;;;5.27;2.60;;;;;;;;;;10484296;28;20566;-74
2021/05/10 22:01:07;;;;;;;6.77;2.43;;;;;;;;;;10481912;28;20228;-74
2021/05/10 22:06:09;;;;;;;4.83;2.57;;;;;;;;;;10488843;28;20236;-72
2021/05/10 22:11:12;;;;;;;5.90;2.50;;;;;;;;;;10488354;28;20671;-74
2021/05/10 22:16:34;;;;;;;5.77;2.50;;;;;;;;;;10478251;28;20228;-74
2021/05/10 22:21:36;;;;;;;6.43;2.47;;;;;;;;;;10485807;28;20228;-74
2021/05/10 22:26:52;;;;;;;5.00;2.37;;;;;;;;;;10482289;28;20240;-74
2021/05/10 22:31:54;;;;;;;4.23;2.27;;;;;;;;;;10488812;28;20264;-73
2021/05/10 22:36:59;;;;;;;6.07;2.40;;;;;;;;;;10483749;28;20232;-71
2021/05/10 22:42:06;;;;;;;5.27;2.47;;;;;;;;;;10476688;28;20270;-73
2021/05/10 23:08:40;;;;;;;3.43;2.00;;;;;;;;;;10489388;28;20664;-74
2021/05/10 23:13:58;;;;;;;5.10;1.90;;;;;;;;;;10494440;28;20277;-73
2021/05/10 23:19:00;;;;;;;5.33;1.93;;;;;;;;;;10487392;28;20564;-73
2021/05/10 23:24:01;;;;;;;2.60;1.47;;;;;;;;;;10496827;28;20216;-73
2021/05/10 23:29:04;;;;;;;3.30;1.30;;;;;;;;;;10488572;28;20192;-73
2021/05/10 23:34:05;;;;;;;3.80;1.57;;;;;;;;;;10490825;28;20219;-73
2021/05/10 23:39:07;;;;;;;2.20;1.37;;;;;;;;;;10494673;28;20366;-73
2021/05/10 23:44:10;;;;;;;1.87;1.20;;;;;;;;;;10491374;28;20220;-74
2021/05/10 23:49:11;;;;;;;2.27;1.20;;;;;;;;;;10482659;28;20572;-73
2021/05/10 23:54:13;;;;;;;3.40;1.20;;;;;;;;;;10491427;28;20212;-74
2021/05/10 23:59:16;;;;;;;2.20;1.13;;;;;;;;;;10490068;28;20218;-73
